createdAt,value
2023-03-11T00:01:01.148Z,78.86
2023-03-11T00:06:03.364Z,79.08
2023-03-11T00:11:05.423Z,78.75
2023-03-11T00:16:07.674Z,79.36
2023-03-11T00:21:17.477Z,79.48
2023-03-11T00:26:19.662Z,79.48
2023-03-11T00:31:22.894Z,79.22
2023-03-11T00:36:31.955Z,78.95
2023-03-11T00:41:35.224Z,79.08
2023-03-11T00:46:37.419Z,79.29
2023-03-11T00:51:39.705Z,79.29
2023-03-11T00:56:42.097Z,79.88
2023-03-11T01:01:44.135Z,79.83
2023-03-11T01:06:46.196Z,79.88
2023-03-11T01:11:48.396Z,79.84
2023-03-11T01:16:50.472Z,80.21
2023-03-11T01:21:52.473Z,80.47
2023-03-11T01:26:54.399Z,80.35
2023-03-11T01:31:56.547Z,80.68
2023-03-11T01:36:58.569Z,80.91
2023-03-11T01:42:00.552Z,80.54
2023-03-11T01:47:02.565Z,80.44
2023-03-11T01:52:08.133Z,80.18
2023-03-11T01:57:13.946Z,80.37
2023-03-11T02:07:41.253Z,80.18
2023-03-11T02:12:44.454Z,80.38
2023-03-11T02:17:46.535Z,80.36
2023-03-11T02:22:49.806Z,80.37
2023-03-11T02:27:54.617Z,80.73
2023-03-11T02:32:56.937Z,80.60
2023-03-11T02:37:58.978Z,80.96
2023-03-11T02:43:03.810Z,80.96
2023-03-11T02:48:09.088Z,80.62
2023-03-11T02:53:11.130Z,80.74
2023-03-11T02:58:13.261Z,80.88
2023-03-11T03:03:16.154Z,80.77
2023-03-11T03:08:18.314Z,80.64
2023-03-11T03:13:20.398Z,80.55
2023-03-11T03:18:22.471Z,80.83
2023-03-11T03:23:24.595Z,80.68
2023-03-11T03:28:26.575Z,80.46
2023-03-11T03:33:28.548Z,80.15
2023-03-11T03:38:30.579Z,80.65
2023-03-11T03:43:32.604Z,80.79
2023-03-11T03:48:34.725Z,80.87
2023-03-11T03:53:37.768Z,81.17
2023-03-11T03:58:40.402Z,80.65
2023-03-11T04:03:42.427Z,80.45
2023-03-11T04:08:45.125Z,80.42
2023-03-11T04:13:48.370Z,80.44
2023-03-11T04:18:50.547Z,80.24
2023-03-11T04:23:52.565Z,80.52
2023-03-11T04:28:54.755Z,80.70
2023-03-11T04:33:56.909Z,81.17
2023-03-11T04:38:59.062Z,81.01
2023-03-11T04:44:01.084Z,81.33
2023-03-11T04:49:03.139Z,81.39
2023-03-11T04:54:05.307Z,81.61
2023-03-11T04:59:07.464Z,81.40
2023-03-11T05:04:09.521Z,81.57
2023-03-11T05:09:11.613Z,81.44
2023-03-11T05:14:13.683Z,81.29
2023-03-11T05:19:36.678Z,81.67
2023-03-11T05:24:39.283Z,80.75
2023-03-11T05:29:41.502Z,80.78
2023-03-11T05:34:43.505Z,80.57
2023-03-11T05:39:45.637Z,80.41
2023-03-11T05:44:47.692Z,80.30
2023-03-11T05:49:49.724Z,80.31
2023-03-11T05:54:52.745Z,80.07
2023-03-11T05:59:54.954Z,80.15
2023-03-11T06:04:57.199Z,80.26
2023-03-11T06:09:59.234Z,80.19
2023-03-11T06:15:01.250Z,79.91
2023-03-11T06:20:05.011Z,80.33
2023-03-11T06:25:08.202Z,80.44
2023-03-11T06:30:11.477Z,80.40
2023-03-11T06:35:14.245Z,80.67
2023-03-11T06:40:16.667Z,80.96
2023-03-11T06:45:20.638Z,80.70
2023-03-11T06:50:24.392Z,80.55
2023-03-11T06:55:26.573Z,80.26
2023-03-11T07:00:30.571Z,80.39
2023-03-11T07:05:32.826Z,80.39
2023-03-11T07:10:36.002Z,80.04
2023-03-11T07:15:38.066Z,79.77
2023-03-11T07:20:40.142Z,79.63
2023-03-11T07:25:47.181Z,79.35
2023-03-11T07:30:49.567Z,79.66
2023-03-11T07:35:52.846Z,79.01
2023-03-11T07:40:59.778Z,79.11
2023-03-11T07:46:14.346Z,78.55
2023-03-11T07:51:25.635Z,78.80
2023-03-11T07:56:30.399Z,78.24
2023-03-11T08:01:36.913Z,77.69
2023-03-11T08:06:39.143Z,78.23
2023-03-11T08:11:41.652Z,77.56
2023-03-11T08:16:43.727Z,77.77
2023-03-11T08:21:47.268Z,77.38
2023-03-11T08:26:49.539Z,77.50
2023-03-11T08:31:51.632Z,77.66
2023-03-11T08:36:53.795Z,77.39
2023-03-11T08:41:55.979Z,77.49
2023-03-11T08:46:58.252Z,76.82
2023-03-11T08:52:00.409Z,77.62
2023-03-11T08:57:04.148Z,76.81
2023-03-11T09:02:06.189Z,76.97
2023-03-11T09:07:08.358Z,77.11
2023-03-11T09:12:14.471Z,77.64
2023-03-11T09:17:17.604Z,77.54
2023-03-11T09:22:19.808Z,77.95
2023-03-11T09:27:22.068Z,77.23
2023-03-11T09:32:24.235Z,77.53
2023-03-11T09:37:27.342Z,76.73
2023-03-11T09:42:56.764Z,76.81
2023-03-11T09:48:20.487Z,77.35
2023-03-11T09:53:33.423Z,76.99
2023-03-11T09:58:41.779Z,76.74
2023-03-11T10:03:45.148Z,77.25
2023-03-11T10:08:49.686Z,76.83
2023-03-11T10:14:10.454Z,77.35
2023-03-11T10:19:23.223Z,76.79
2023-03-11T10:24:48.052Z,77.17
2023-03-11T10:30:07.889Z,77.02
2023-03-11T10:35:16.287Z,76.71
2023-03-11T10:40:40.025Z,76.27
2023-03-11T10:45:45.295Z,77.27
2023-03-11T10:51:02.104Z,76.51
2023-03-11T10:56:04.339Z,76.92
2023-03-11T11:01:18.492Z,76.96
2023-03-11T11:06:25.970Z,76.49
2023-03-11T11:11:28.251Z,76.06
2023-03-11T11:16:30.758Z,76.55
2023-03-11T11:21:37.669Z,76.46
2023-03-11T11:26:39.943Z,76.91
2023-03-11T11:31:45.691Z,75.81
2023-03-11T11:36:47.721Z,75.62
2023-03-11T11:41:50.425Z,76.14
2023-03-11T11:47:06.338Z,76.38
2023-03-11T11:52:19.174Z,76.23
2023-03-11T11:57:23.112Z,76.14
2023-03-11T12:02:46.978Z,76.00
2023-03-11T12:08:04.615Z,75.60
2023-03-11T12:13:34.938Z,76.58
2023-03-11T12:18:44.475Z,75.82
2023-03-11T12:24:10.838Z,75.66
2023-03-11T12:29:34.618Z,75.53
2023-03-11T12:34:36.951Z,75.77
2023-03-11T12:39:39.352Z,75.31
2023-03-11T12:44:41.937Z,75.85
2023-03-11T12:49:47.213Z,75.81
2023-03-11T12:55:10.765Z,76.17
2023-03-11T13:00:38.594Z,75.80
2023-03-11T13:05:51.283Z,75.53
2023-03-11T13:10:55.201Z,75.44
2023-03-11T13:15:58.903Z,75.96
2023-03-11T13:21:02.607Z,76.41
2023-03-11T13:26:10.263Z,75.95
2023-03-11T13:31:30.847Z,76.85
2023-03-11T13:36:51.333Z,76.38
2023-03-11T13:41:53.689Z,75.83
2023-03-11T13:47:03.344Z,76.56
2023-03-11T13:52:12.914Z,75.34
2023-03-11T13:57:26.397Z,75.92
2023-03-11T14:02:28.705Z,75.52
2023-03-11T14:07:35.628Z,75.70
2023-03-11T14:12:38.741Z,75.80
2023-03-11T14:17:41.094Z,75.42
2023-03-11T14:22:48.879Z,76.46
2023-03-11T14:28:02.717Z,75.73
2023-03-11T14:33:22.421Z,75.42
2023-03-11T14:38:28.119Z,75.48
2023-03-11T14:43:34.951Z,75.54
2023-03-11T14:48:41.991Z,75.46
2023-03-11T14:54:03.940Z,75.52
2023-03-11T14:59:12.683Z,75.07
2023-03-11T15:04:27.792Z,75.57
2023-03-11T15:09:30.465Z,75.21
2023-03-11T15:14:38.877Z,75.84
2023-03-11T15:19:41.533Z,75.34
2023-03-11T15:24:54.908Z,75.82
2023-03-11T15:29:58.731Z,75.62
2023-03-11T15:35:03.297Z,76.46
2023-03-11T15:40:30.030Z,76.03
2023-03-11T15:45:37.906Z,76.25
2023-03-11T15:50:54.511Z,75.61
2023-03-11T15:56:12.252Z,75.39
2023-03-11T16:01:14.569Z,75.44
2023-03-11T16:06:16.777Z,74.81
2023-03-11T16:11:19.230Z,74.57
2023-03-11T16:16:23.311Z,74.70
2023-03-11T16:21:34.385Z,74.40
2023-03-11T16:26:38.533Z,74.50
2023-03-11T16:31:41.072Z,74.11
2023-03-11T16:36:43.294Z,73.63
2023-03-11T16:41:45.980Z,73.98
2023-03-11T16:46:48.810Z,73.59
2023-03-11T16:51:51.558Z,73.85
2023-03-11T16:56:53.829Z,74.01
2023-03-11T17:01:56.251Z,73.14
2023-03-11T17:06:58.797Z,73.24
2023-03-11T17:12:01.847Z,73.24
2023-03-11T17:17:04.616Z,72.94
2023-03-11T17:22:07.327Z,73.02
2023-03-11T17:27:09.694Z,73.13
2023-03-11T17:32:16.962Z,72.73
2023-03-11T17:37:20.573Z,73.53
2023-03-11T17:42:24.674Z,73.05
2023-03-11T17:47:27.878Z,73.57
2023-03-11T17:52:31.081Z,72.99
2023-03-11T17:57:44.406Z,73.03
2023-03-11T18:02:47.667Z,73.01
2023-03-11T18:07:50.592Z,72.07
2023-03-11T18:12:53.969Z,72.71
2023-03-11T18:17:57.760Z,73.18
2023-03-11T18:23:00.930Z,72.93
2023-03-11T18:28:04.306Z,72.93
2023-03-11T18:33:07.087Z,72.28
2023-03-11T18:38:12.087Z,73.01
2023-03-11T18:43:15.236Z,73.89
2023-03-11T18:48:17.991Z,73.48
2023-03-11T18:53:22.314Z,74.14
2023-03-11T18:58:24.968Z,74.05
2023-03-11T19:03:28.134Z,72.90
2023-03-11T19:08:33.236Z,74.09
2023-03-11T19:13:47.812Z,74.28
2023-03-11T19:18:51.774Z,74.28
2023-03-11T19:23:57.280Z,74.26
2023-03-11T19:29:00.423Z,73.44
2023-03-11T19:34:03.959Z,75.28
2023-03-11T19:39:06.915Z,73.86
2023-03-11T19:44:10.200Z,74.42
2023-03-11T19:49:13.298Z,73.94
2023-03-11T19:54:17.653Z,74.64
2023-03-11T19:59:21.653Z,75.09
2023-03-11T20:04:26.365Z,74.96
2023-03-11T20:09:29.519Z,74.58
2023-03-11T20:14:32.508Z,73.68
2023-03-11T20:19:36.852Z,74.80
2023-03-11T20:24:39.756Z,74.80
2023-03-11T20:29:42.750Z,73.71
2023-03-11T20:34:49.449Z,73.81
2023-03-11T20:39:53.623Z,73.78
2023-03-11T20:44:56.749Z,73.39
2023-03-11T20:50:00.450Z,73.84
2023-03-11T20:55:04.700Z,73.87
2023-03-11T21:00:12.653Z,73.40
2023-03-11T21:05:15.828Z,73.80
2023-03-11T21:10:18.982Z,73.48
2023-03-11T21:15:21.629Z,73.63
2023-03-11T21:20:24.146Z,73.55
2023-03-11T21:25:27.136Z,74.96
2023-03-11T21:30:29.312Z,73.87
2023-03-11T21:35:31.978Z,74.17
2023-03-11T21:40:34.453Z,74.65
2023-03-11T21:45:36.758Z,73.64
2023-03-11T21:50:39.532Z,73.89
2023-03-11T21:55:43.619Z,74.15
2023-03-11T22:00:46.063Z,73.44
2023-03-11T22:05:48.428Z,74.38
2023-03-11T22:10:50.627Z,75.02
2023-03-11T22:15:52.838Z,74.19
2023-03-11T22:20:58.629Z,74.01
2023-03-11T22:26:01.625Z,74.19
2023-03-11T22:31:11.227Z,74.30
2023-03-11T22:36:13.393Z,74.71
2023-03-11T22:41:19.492Z,73.95
2023-03-11T22:46:21.889Z,74.27
2023-03-11T22:51:24.066Z,74.58
2023-03-11T22:56:26.585Z,73.81
2023-03-11T23:01:29.320Z,74.24
2023-03-11T23:06:31.437Z,74.69
2023-03-11T23:11:33.486Z,74.48
2023-03-11T23:16:35.519Z,74.45
2023-03-11T23:21:37.686Z,74.83
2023-03-11T23:26:39.717Z,75.00
2023-03-11T23:31:41.798Z,75.40
2023-03-11T23:36:43.840Z,75.05
2023-03-11T23:41:45.968Z,74.89
2023-03-11T23:46:48.022Z,75.09
2023-03-11T23:51:50.001Z,75.68
2023-03-11T23:56:52.197Z,75.56
